sensor_id;sensor_type;location;lat;lon;timestamp;pressure;altitude;pressure_sealevel;temperature;humidity
46614;BME280;32338;50.430;6.806;2023-12-14T00:00:24;65812.28;;;3.63;100.00
46614;BME280;32338;50.430;6.806;2023-12-14T00:02:50;65821.03;;;3.69;100.00
46614;BME280;32338;50.430;6.806;2023-12-14T00:05:17;65820.13;;;3.70;100.00
46614;BME280;32338;50.430;6.806;2023-12-14T00:07:45;65833.16;;;3.78;100.00
46614;BME280;32338;50.430;6.806;2023-12-14T00:10:12;65829.63;;;3.79;100.00
46614;BME280;32338;50.430;6.806;2023-12-14T00:12:38;65833.94;;;3.81;100.00
46614;BME280;32338;50.430;6.806;2023-12-14T00:15:06;65845.06;;;3.84;100.00
46614;BME280;32338;50.430;6.806;2023-12-14T00:17:32;65835.25;;;3.84;100.00
46614;BME280;32338;50.430;6.806;2023-12-14T00:19:59;65837.84;;;3.84;100.00
46614;BME280;32338;50.430;6.806;2023-12-14T00:22:25;65837.47;;;3.86;100.00
46614;BME280;32338;50.430;6.806;2023-12-14T00:24:53;65835.81;;;3.85;100.00
46614;BME280;32338;50.430;6.806;2023-12-14T00:27:20;65833.56;;;3.83;100.00
46614;BME280;32338;50.430;6.806;2023-12-14T00:29:47;65837.28;;;3.84;100.00
46614;BME280;32338;50.430;6.806;2023-12-14T00:32:13;65837.47;;;3.86;100.00
46614;BME280;32338;50.430;6.806;2023-12-14T00:34:40;65842.31;;;3.88;100.00
46614;BME280;32338;50.430;6.806;2023-12-14T00:37:06;65843.44;;;3.89;100.00
46614;BME280;32338;50.430;6.806;2023-12-14T00:39:33;65842.31;;;3.88;100.00
46614;BME280;32338;50.430;6.806;2023-12-14T00:42:01;65844.91;;;3.88;100.00
46614;BME280;32338;50.430;6.806;2023-12-14T00:44:27;65839.16;;;3.88;100.00
46614;BME280;32338;50.430;6.806;2023-12-14T00:46:54;65840.84;;;3.89;100.00
46614;BME280;32338;50.430;6.806;2023-12-14T00:49:20;65840.47;;;3.92;100.00
46614;BME280;32338;50.430;6.806;2023-12-14T00:51:47;65848.13;;;3.96;100.00
46614;BME280;32338;50.430;6.806;2023-12-14T00:54:13;65852.41;;;3.98;100.00
46614;BME280;32338;50.430;6.806;2023-12-14T00:56:40;65853.88;;;3.97;100.00
46614;BME280;32338;50.430;6.806;2023-12-14T00:59:08;65852.41;;;3.98;100.00
46614;BME280;32338;50.430;6.806;2023-12-14T01:01:35;65853.16;;;4.01;100.00
46614;BME280;32338;50.430;6.806;2023-12-14T01:04:01;65856.88;;;4.02;100.00
46614;BME280;32338;50.430;6.806;2023-12-14T01:06:28;65857.66;;;4.05;100.00
46614;BME280;32338;50.430;6.806;2023-12-14T01:08:53;65860.78;;;4.05;100.00
46614;BME280;32338;50.430;6.806;2023-12-14T01:11:20;65858.78;;;4.06;100.00
46614;BME280;32338;50.430;6.806;2023-12-14T01:13:46;65863.03;;;4.08;100.00
46614;BME280;32338;50.430;6.806;2023-12-14T01:16:14;65871.03;;;4.10;100.00
46614;BME280;32338;50.430;6.806;2023-12-14T01:18:41;65864.38;;;4.11;100.00
46614;BME280;32338;50.430;6.806;2023-12-14T01:21:07;65872.34;;;4.14;100.00
46614;BME280;32338;50.430;6.806;2023-12-14T01:23:34;65868.84;;;4.15;100.00
46614;BME280;32338;50.430;6.806;2023-12-14T01:26:00;65868.84;;;4.15;100.00
46614;BME280;32338;50.430;6.806;2023-12-14T01:28:27;65869.41;;;4.16;100.00
46614;BME280;32338;50.430;6.806;2023-12-14T01:30:53;65871.66;;;4.18;100.00
46614;BME280;32338;50.430;6.806;2023-12-14T01:33:23;65877.25;;;4.23;100.00
46614;BME280;32338;50.430;6.806;2023-12-14T01:35:50;65880.63;;;4.26;100.00
46614;BME280;32338;50.430;6.806;2023-12-14T01:38:16;65877.81;;;4.24;100.00
46614;BME280;32338;50.430;6.806;2023-12-14T01:40:43;65884.88;;;4.28;100.00
46614;BME280;32338;50.430;6.806;2023-12-14T01:43:10;65882.28;;;4.28;100.00
46614;BME280;32338;50.430;6.806;2023-12-14T01:45:36;65886.78;;;4.32;100.00
46614;BME280;32338;50.430;6.806;2023-12-14T01:48:03;65888.81;;;4.31;100.00
46614;BME280;32338;50.430;6.806;2023-12-14T01:50:31;65888.59;;;4.29;100.00
46614;BME280;32338;50.430;6.806;2023-12-14T01:52:58;65880.03;;;4.26;100.00
46614;BME280;32338;50.430;6.806;2023-12-14T01:55:25;65885.59;;;4.24;100.00
46614;BME280;32338;50.430;6.806;2023-12-14T01:57:52;65877.81;;;4.24;100.00
46614;BME280;32338;50.430;6.806;2023-12-14T02:00:22;65881.16;;;4.27;100.00
46614;BME280;32338;50.430;6.806;2023-12-14T02:02:51;65886.78;;;4.32;100.00
46614;BME280;32338;50.430;6.806;2023-12-14T02:05:18;65892.16;;;4.34;100.00
46614;BME280;32338;50.430;6.806;2023-12-14T02:07:46;65892.72;;;4.35;100.00
46614;BME280;32338;50.430;6.806;2023-12-14T02:10:12;65891.59;;;4.34;100.00
46614;BME280;32338;50.430;6.806;2023-12-14T02:12:39;65900.94;;;4.40;100.00
46614;BME280;32338;50.430;6.806;2023-12-14T02:15:06;65900.59;;;4.42;100.00
46614;BME280;32338;50.430;6.806;2023-12-14T02:17:34;65895.75;;;4.40;100.00
46614;BME280;32338;50.430;6.806;2023-12-14T02:20:00;65906.75;;;4.48;100.00
46614;BME280;32338;50.430;6.806;2023-12-14T02:22:27;65908.78;;;4.47;100.00
46614;BME280;32338;50.430;6.806;2023-12-14T02:24:55;65909.19;;;4.52;100.00
46614;BME280;32338;50.430;6.806;2023-12-14T02:27:21;65906.38;;;4.50;100.00
46614;BME280;32338;50.430;6.806;2023-12-14T02:29:48;65909.00;;;4.50;100.00
46614;BME280;32338;50.430;6.806;2023-12-14T02:32:15;65905.81;;;4.49;100.00
46614;BME280;32338;50.430;6.806;2023-12-14T02:34:41;65925.03;;;4.62;100.00
46614;BME280;32338;50.430;6.806;2023-12-14T02:37:08;65924.47;;;4.62;100.00
46614;BME280;32338;50.430;6.806;2023-12-14T02:39:34;65920.75;;;4.61;100.00
46614;BME280;32338;50.430;6.806;2023-12-14T02:42:02;65919.84;;;4.62;100.00
46614;BME280;32338;50.430;6.806;2023-12-14T02:44:29;65916.69;;;4.62;100.00
46614;BME280;32338;50.430;6.806;2023-12-14T02:46:55;65919.28;;;4.62;100.00
46614;BME280;32338;50.430;6.806;2023-12-14T02:49:22;65917.03;;;4.60;100.00
46614;BME280;32338;50.430;6.806;2023-12-14T02:51:48;65918.84;;;4.57;100.00
46614;BME280;32338;50.430;6.806;2023-12-14T02:54:15;65911.44;;;4.54;100.00
46614;BME280;32338;50.430;6.806;2023-12-14T02:56:41;65912.53;;;4.55;100.00
46614;BME280;32338;50.430;6.806;2023-12-14T02:59:09;65913.47;;;4.54;100.00
46614;BME280;32338;50.430;6.806;2023-12-14T03:01:36;65912.53;;;4.55;100.00
46614;BME280;32338;50.430;6.806;2023-12-14T03:04:03;65923.00;;;4.63;100.00
46614;BME280;32338;50.430;6.806;2023-12-14T03:06:29;65920.53;;;4.58;100.00
46614;BME280;32338;50.430;6.806;2023-12-14T03:08:56;65920.91;;;4.56;100.00
46614;BME280;32338;50.430;6.806;2023-12-14T03:11:23;65911.78;;;4.52;100.00
46614;BME280;32338;50.430;6.806;2023-12-14T03:13:50;65911.78;;;4.52;100.00
46614;BME280;32338;50.430;6.806;2023-12-14T03:16:18;65914.03;;;4.54;100.00
46614;BME280;32338;50.430;6.806;2023-12-14T03:18:45;65917.72;;;4.55;100.00
46614;BME280;32338;50.430;6.806;2023-12-14T03:21:11;65914.59;;;4.55;100.00
46614;BME280;32338;50.430;6.806;2023-12-14T03:23:38;65911.06;;;4.57;100.00
46614;BME280;32338;50.430;6.806;2023-12-14T03:26:05;65915.72;;;4.56;100.00
46614;BME280;32338;50.430;6.806;2023-12-14T03:28:31;65911.44;;;4.54;100.00
46614;BME280;32338;50.430;6.806;2023-12-14T03:30:58;65920.19;;;4.60;100.00
46614;BME280;32338;50.430;6.806;2023-12-14T03:33:26;65923.91;;;4.61;100.00
46614;BME280;32338;50.430;6.806;2023-12-14T03:35:52;65918.72;;;4.61;100.00
46614;BME280;32338;50.430;6.806;2023-12-14T03:38:19;65919.63;;;4.60;100.00
46614;BME280;32338;50.430;6.806;2023-12-14T03:40:45;65917.94;;;4.58;100.00
46614;BME280;32338;50.430;6.806;2023-12-14T03:43:12;65917.38;;;4.58;100.00
46614;BME280;32338;50.430;6.806;2023-12-14T03:45:38;65911.06;;;4.57;100.00
46614;BME280;32338;50.430;6.806;2023-12-14T03:48:05;65922.22;;;4.60;100.00
46614;BME280;32338;50.430;6.806;2023-12-14T03:50:33;65918.16;;;4.61;100.00
46614;BME280;32338;50.430;6.806;2023-12-14T03:52:59;65919.44;;;4.57;100.00
46614;BME280;32338;50.430;6.806;2023-12-14T03:55:26;65911.06;;;4.57;100.00
46614;BME280;32338;50.430;6.806;2023-12-14T03:57:53;65912.91;;;4.53;100.00
46614;BME280;32338;50.430;6.806;2023-12-14T04:00:20;65912.53;;;4.55;100.00
46614;BME280;32338;50.430;6.806;2023-12-14T04:02:47;65914.38;;;4.52;100.00
46614;BME280;32338;50.430;6.806;2023-12-14T04:05:13;65912.00;;;4.55;100.00
46614;BME280;32338;50.430;6.806;2023-12-14T04:07:41;65918.50;;;4.59;100.00
46614;BME280;32338;50.430;6.806;2023-12-14T04:10:09;65915.91;;;4.59;100.00
46614;BME280;32338;50.430;6.806;2023-12-14T04:12:36;65924.88;;;4.67;100.00
46614;BME280;32338;50.430;6.806;2023-12-14T04:15:03;65927.13;;;4.69;100.00
46614;BME280;32338;50.430;6.806;2023-12-14T04:17:30;65926.91;;;4.66;100.00
46614;BME280;32338;50.430;6.806;2023-12-14T04:19:57;65925.44;;;4.67;100.00
46614;BME280;32338;50.430;6.806;2023-12-14T04:22:24;65923.56;;;4.63;100.00
46614;BME280;32338;50.430;6.806;2023-12-14T04:24:52;65920.75;;;4.61;100.00
46614;BME280;32338;50.430;6.806;2023-12-14T04:27:19;65919.28;;;4.62;100.00
46614;BME280;32338;50.430;6.806;2023-12-14T04:29:45;65917.19;;;4.55;100.00
46614;BME280;32338;50.430;6.806;2023-12-14T04:32:12;65910.31;;;4.53;100.00
46614;BME280;32338;50.430;6.806;2023-12-14T04:34:39;65911.78;;;4.52;100.00
46614;BME280;32338;50.430;6.806;2023-12-14T04:37:05;65914.59;;;4.55;100.00
46614;BME280;32338;50.430;6.806;2023-12-14T04:39:33;65913.13;;;4.56;100.00
46614;BME280;32338;50.430;6.806;2023-12-14T04:42:00;65915.72;;;4.56;100.00
46614;BME280;32338;50.430;6.806;2023-12-14T04:44:27;65912.91;;;4.53;100.00
46614;BME280;32338;50.430;6.806;2023-12-14T04:46:54;65915.91;;;4.59;100.00
46614;BME280;32338;50.430;6.806;2023-12-14T04:49:20;65914.44;;;4.60;100.00
46614;BME280;32338;50.430;6.806;2023-12-14T04:51:47;65915.91;;;4.59;100.00
46614;BME280;32338;50.430;6.806;2023-12-14T04:54:14;65910.31;;;4.53;100.00
46614;BME280;32338;50.430;6.806;2023-12-14T04:56:40;65902.66;;;4.49;100.00
46614;BME280;32338;50.430;6.806;2023-12-14T04:59:11;65916.63;;;4.54;100.00
46614;BME280;32338;50.430;6.806;2023-12-14T05:01:37;65914.78;;;4.58;100.00
46614;BME280;32338;50.430;6.806;2023-12-14T05:04:04;65910.66;;;4.51;100.00
46614;BME280;32338;50.430;6.806;2023-12-14T05:06:30;65901.53;;;4.48;100.00
46614;BME280;32338;50.430;6.806;2023-12-14T05:08:58;65908.06;;;4.51;100.00
46614;BME280;32338;50.430;6.806;2023-12-14T05:11:28;65912.00;;;4.55;100.00
46614;BME280;32338;50.430;6.806;2023-12-14T05:13:54;65909.75;;;4.53;100.00
46614;BME280;32338;50.430;6.806;2023-12-14T05:16:23;65913.84;;;4.52;100.00
46614;BME280;32338;50.430;6.806;2023-12-14T05:18:51;65907.66;;;4.46;100.00
46614;BME280;32338;50.430;6.806;2023-12-14T05:21:18;65897.41;;;4.42;100.00
46614;BME280;32338;50.430;6.806;2023-12-14T05:23:45;65895.75;;;4.40;100.00
46614;BME280;32338;50.430;6.806;2023-12-14T05:26:12;65902.59;;;4.42;100.00
46614;BME280;32338;50.430;6.806;2023-12-14T05:28:38;65900.38;;;4.40;100.00
46614;BME280;32338;50.430;6.806;2023-12-14T05:31:05;65895.19;;;4.40;100.00
46614;BME280;32338;50.430;6.806;2023-12-14T05:33:36;65895.19;;;4.40;100.00
46614;BME280;32338;50.430;6.806;2023-12-14T05:36:03;65890.69;;;4.35;100.00
46614;BME280;32338;50.430;6.806;2023-12-14T05:38:34;65901.13;;;4.43;100.00
46614;BME280;32338;50.430;6.806;2023-12-14T05:41:00;65896.66;;;4.38;100.00
46614;BME280;32338;50.430;6.806;2023-12-14T05:43:27;65889.78;;;4.37;100.00
46614;BME280;32338;50.430;6.806;2023-12-14T05:45:53;65887.34;;;4.32;100.00
46614;BME280;32338;50.430;6.806;2023-12-14T05:48:20;65889.16;;;4.29;100.00
46614;BME280;32338;50.430;6.806;2023-12-14T05:50:48;65897.00;;;4.36;100.00
46614;BME280;32338;50.430;6.806;2023-12-14T05:53:14;65889.38;;;4.32;100.00
46614;BME280;32338;50.430;6.806;2023-12-14T05:55:42;65888.06;;;4.28;100.00
46614;BME280;32338;50.430;6.806;2023-12-14T05:58:08;65884.53;;;4.30;100.00
46614;BME280;32338;50.430;6.806;2023-12-14T06:00:35;65881.16;;;4.27;100.00
46614;BME280;32338;50.430;6.806;2023-12-14T06:03:02;65880.97;;;4.24;100.00
46614;BME280;32338;50.430;6.806;2023-12-14T06:05:29;65879.84;;;4.23;100.00
46614;BME280;32338;50.430;6.806;2023-12-14T06:07:57;65878.38;;;4.24;100.00
46614;BME280;32338;50.430;6.806;2023-12-14T06:10:24;65878.94;;;4.25;100.00
46614;BME280;32338;50.430;6.806;2023-12-14T06:12:50;65886.34;;;4.27;100.00
46614;BME280;32338;50.430;6.806;2023-12-14T06:15:17;65888.06;;;4.28;100.00
46614;BME280;32338;50.430;6.806;2023-12-14T06:17:44;65877.03;;;4.20;100.00
46614;BME280;32338;50.430;6.806;2023-12-14T06:20:11;65873.34;;;4.19;100.00
46614;BME280;32338;50.430;6.806;2023-12-14T06:22:39;65867.16;;;4.14;100.00
46614;BME280;32338;50.430;6.806;2023-12-14T06:25:08;65863.25;;;4.10;100.00
46614;BME280;32338;50.430;6.806;2023-12-14T06:27:34;65863.25;;;4.10;100.00
46614;BME280;32338;50.430;6.806;2023-12-14T06:30:01;65859.31;;;4.06;100.00
46614;BME280;32338;50.430;6.806;2023-12-14T06:32:28;65857.84;;;4.08;100.00
46614;BME280;32338;50.430;6.806;2023-12-14T06:34:54;65869.91;;;4.09;100.00
46614;BME280;32338;50.430;6.806;2023-12-14T06:37:21;65859.69;;;4.04;100.00
46614;BME280;32338;50.430;6.806;2023-12-14T06:39:47;65849.81;;;3.98;100.00
46614;BME280;32338;50.430;6.806;2023-12-14T06:42:14;65850.72;;;3.96;100.00
46614;BME280;32338;50.430;6.806;2023-12-14T06:44:41;65846.09;;;3.97;100.00
46614;BME280;32338;50.430;6.806;2023-12-14T06:47:07;65855.75;;;4.01;100.00
46614;BME280;32338;50.430;6.806;2023-12-14T06:49:34;65858.91;;;4.01;100.00
46614;BME280;32338;50.430;6.806;2023-12-14T06:52:00;65853.16;;;4.01;100.00
46614;BME280;32338;50.430;6.806;2023-12-14T06:54:27;65853.16;;;4.01;100.00
46614;BME280;32338;50.430;6.806;2023-12-14T06:56:53;65853.72;;;4.01;100.00
46614;BME280;32338;50.430;6.806;2023-12-14T06:59:21;65853.94;;;4.04;100.00
46614;BME280;32338;50.430;6.806;2023-12-14T07:01:49;65857.78;;;4.00;100.00
46614;BME280;32338;50.430;6.806;2023-12-14T07:04:15;65856.31;;;4.01;100.00
46614;BME280;32338;50.430;6.806;2023-12-14T07:06:50;65853.72;;;4.01;100.00
46614;BME280;32338;50.430;6.806;2023-12-14T07:09:16;65854.63;;;4.00;100.00
46614;BME280;32338;50.430;6.806;2023-12-14T07:11:43;65855.00;;;3.98;100.00
46614;BME280;32338;50.430;6.806;2023-12-14T07:14:09;65861.91;;;4.06;100.00
46614;BME280;32338;50.430;6.806;2023-12-14T07:16:38;65856.88;;;4.02;100.00
46614;BME280;32338;50.430;6.806;2023-12-14T07:19:04;65850.00;;;4.00;100.00
46614;BME280;32338;50.430;6.806;2023-12-14T07:21:31;65853.16;;;4.01;100.00
46614;BME280;32338;50.430;6.806;2023-12-14T07:23:58;65851.84;;;3.97;100.00
46614;BME280;32338;50.430;6.806;2023-12-14T07:26:25;65853.16;;;4.01;100.00
46614;BME280;32338;50.430;6.806;2023-12-14T07:28:53;65852.03;;;4.00;100.00
46614;BME280;32338;50.430;6.806;2023-12-14T07:31:20;65852.41;;;3.98;100.00
46614;BME280;32338;50.430;6.806;2023-12-14T07:33:47;65848.47;;;3.94;100.00
46614;BME280;32338;50.430;6.806;2023-12-14T07:36:14;65844.00;;;3.90;100.00
46614;BME280;32338;50.430;6.806;2023-12-14T07:38:41;65845.84;;;3.87;100.00
46614;BME280;32338;50.430;6.806;2023-12-14T07:41:08;65838.94;;;3.85;100.00
46614;BME280;32338;50.430;6.806;2023-12-14T07:43:34;65835.25;;;3.84;100.00
46614;BME280;32338;50.430;6.806;2023-12-14T07:46:01;65838.41;;;3.85;100.00
46614;BME280;32338;50.430;6.806;2023-12-14T07:48:27;65839.53;;;3.86;100.00
46614;BME280;32338;50.430;6.806;2023-12-14T07:50:56;65845.31;;;3.94;100.00
46614;BME280;32338;50.430;6.806;2023-12-14T07:53:22;65857.22;;;4.00;100.00
46614;BME280;32338;50.430;6.806;2023-12-14T07:55:49;65847.56;;;3.96;100.00
46614;BME280;32338;50.430;6.806;2023-12-14T07:58:16;65860.03;;;4.02;100.00
46614;BME280;32338;50.430;6.806;2023-12-14T08:00:43;65845.31;;;3.94;100.00
46614;BME280;32338;50.430;6.806;2023-12-14T08:03:09;65837.47;;;3.86;100.00
46614;BME280;32338;50.430;6.806;2023-12-14T08:05:36;65840.06;;;3.86;100.00
46614;BME280;32338;50.430;6.806;2023-12-14T08:08:04;65842.31;;;3.88;100.00
46614;BME280;32338;50.430;6.806;2023-12-14T08:10:30;65853.09;;;3.94;100.00
46614;BME280;32338;50.430;6.806;2023-12-14T08:12:57;65843.44;;;3.89;100.00
46614;BME280;32338;50.430;6.806;2023-12-14T08:15:23;65845.13;;;3.91;100.00
46614;BME280;32338;50.430;6.806;2023-12-14T08:17:50;65839.53;;;3.86;100.00
46614;BME280;32338;50.430;6.806;2023-12-14T08:20:17;65843.66;;;3.92;100.00
46614;BME280;32338;50.430;6.806;2023-12-14T08:22:43;65856.09;;;3.99;100.00
46614;BME280;32338;50.430;6.806;2023-12-14T08:25:13;65842.31;;;3.88;100.00
46614;BME280;32338;50.430;6.806;2023-12-14T08:27:40;65838.41;;;3.85;100.00
46614;BME280;32338;50.430;6.806;2023-12-14T08:30:08;65835.25;;;3.84;100.00
46614;BME280;32338;50.430;6.806;2023-12-14T08:32:35;65833.75;;;3.85;100.00
46614;BME280;32338;50.430;6.806;2023-12-14T08:35:01;65830.75;;;3.80;100.00
46614;BME280;32338;50.430;6.806;2023-12-14T08:37:28;65829.63;;;3.79;100.00
46614;BME280;32338;50.430;6.806;2023-12-14T08:39:54;65836.72;;;3.83;100.00
46614;BME280;32338;50.430;6.806;2023-12-14T08:42:22;65835.25;;;3.84;100.00
46614;BME280;32338;50.430;6.806;2023-12-14T08:44:49;65836.56;;;3.88;100.00
46614;BME280;32338;50.430;6.806;2023-12-14T08:47:15;65839.16;;;3.88;100.00
46614;BME280;32338;50.430;6.806;2023-12-14T08:49:42;65837.84;;;3.84;100.00
46614;BME280;32338;50.430;6.806;2023-12-14T08:52:08;65838.06;;;3.87;100.00
46614;BME280;32338;50.430;6.806;2023-12-14T08:54:37;65841.94;;;3.90;100.00
46614;BME280;32338;50.430;6.806;2023-12-14T08:57:03;65851.47;;;3.99;100.00
46614;BME280;32338;50.430;6.806;2023-12-14T08:59:31;65849.25;;;3.97;100.00
46614;BME280;32338;50.430;6.806;2023-12-14T09:01:58;65850.16;;;3.96;100.00
46614;BME280;32338;50.430;6.806;2023-12-14T09:04:24;65846.25;;;3.92;100.00
46614;BME280;32338;50.430;6.806;2023-12-14T09:06:52;65849.81;;;3.98;100.00
46614;BME280;32338;50.430;6.806;2023-12-14T09:09:18;65851.69;;;4.02;100.00
46614;BME280;32338;50.430;6.806;2023-12-14T09:11:45;65863.81;;;4.11;100.00
46614;BME280;32338;50.430;6.806;2023-12-14T09:14:11;65874.25;;;4.18;100.00
46614;BME280;32338;50.430;6.806;2023-12-14T09:16:39;65874.25;;;4.18;100.00
46614;BME280;32338;50.430;6.806;2023-12-14T09:19:06;65868.09;;;4.12;100.00
46614;BME280;32338;50.430;6.806;2023-12-14T09:21:32;65860.66;;;4.10;100.00
46614;BME280;32338;50.430;6.806;2023-12-14T09:23:59;65871.22;;;4.13;100.00
46614;BME280;32338;50.430;6.806;2023-12-14T09:26:26;65863.25;;;4.10;100.00
46614;BME280;32338;50.430;6.806;2023-12-14T09:28:53;65870.31;;;4.14;100.00
46614;BME280;32338;50.430;6.806;2023-12-14T09:31:19;65863.81;;;4.11;100.00
46614;BME280;32338;50.430;6.806;2023-12-14T09:33:47;65859.91;;;4.07;100.00
46614;BME280;32338;50.430;6.806;2023-12-14T09:36:14;65862.69;;;4.10;100.00
46614;BME280;32338;50.430;6.806;2023-12-14T09:38:40;65868.63;;;4.13;100.00
46614;BME280;32338;50.430;6.806;2023-12-14T09:41:07;65874.81;;;4.18;100.00
46614;BME280;32338;50.430;6.806;2023-12-14T09:43:34;65877.25;;;4.23;100.00
46614;BME280;32338;50.430;6.806;2023-12-14T09:46:01;65875.00;;;4.21;100.00
46614;BME280;32338;50.430;6.806;2023-12-14T09:48:28;65882.44;;;4.23;100.00
46614;BME280;32338;50.430;6.806;2023-12-14T09:50:57;65880.75;;;4.21;100.00
46614;BME280;32338;50.430;6.806;2023-12-14T09:53:23;65875.56;;;4.21;100.00
46614;BME280;32338;50.430;6.806;2023-12-14T09:55:50;65878.16;;;4.21;100.00
46614;BME280;32338;50.430;6.806;2023-12-14T09:58:17;65887.34;;;4.32;100.00
46614;BME280;32338;50.430;6.806;2023-12-14T10:00:43;65887.13;;;4.30;100.00
46614;BME280;32338;50.430;6.806;2023-12-14T10:03:20;65894.22;;;4.34;100.00
46614;BME280;32338;50.430;6.806;2023-12-14T10:05:47;65883.97;;;4.29;100.00
46614;BME280;32338;50.430;6.806;2023-12-14T10:08:16;65892.72;;;4.35;100.00
46614;BME280;32338;50.430;6.806;2023-12-14T10:10:43;65887.47;;;4.28;100.00
46614;BME280;32338;50.430;6.806;2023-12-14T10:13:09;65888.06;;;4.28;100.00
46614;BME280;32338;50.430;6.806;2023-12-14T10:15:42;65893.66;;;4.33;100.00
46614;BME280;32338;50.430;6.806;2023-12-14T10:18:09;65887.34;;;4.32;100.00
46614;BME280;32338;50.430;6.806;2023-12-14T10:20:36;65889.38;;;4.32;100.00
46614;BME280;32338;50.430;6.806;2023-12-14T10:23:04;65888.47;;;4.33;100.00
46614;BME280;32338;50.430;6.806;2023-12-14T10:25:32;65899.25;;;4.38;100.00
46614;BME280;32338;50.430;6.806;2023-12-14T10:27:59;65887.88;;;4.33;100.00
46614;BME280;32338;50.430;6.806;2023-12-14T10:30:28;65882.16;;;4.32;100.00
46614;BME280;32338;50.430;6.806;2023-12-14T10:32:55;65883.75;;;4.27;100.00
46614;BME280;32338;50.430;6.806;2023-12-14T10:35:22;65883.22;;;4.26;100.00
46614;BME280;32338;50.430;6.806;2023-12-14T10:37:50;65884.16;;;4.32;100.00
46614;BME280;32338;50.430;6.806;2023-12-14T10:40:17;65892.16;;;4.34;100.00
46614;BME280;32338;50.430;6.806;2023-12-14T10:42:45;65884.88;;;4.28;100.00
46614;BME280;32338;50.430;6.806;2023-12-14T10:45:15;65885.22;;;4.26;100.00
46614;BME280;32338;50.430;6.806;2023-12-14T10:47:43;65876.13;;;4.22;100.00
46614;BME280;32338;50.430;6.806;2023-12-14T10:50:11;65878.38;;;4.24;100.00
46614;BME280;32338;50.430;6.806;2023-12-14T10:52:38;65884.13;;;4.25;100.00
46614;BME280;32338;50.430;6.806;2023-12-14T10:55:08;65888.59;;;4.29;100.00
46614;BME280;32338;50.430;6.806;2023-12-14T10:57:36;65882.63;;;4.26;100.00
46614;BME280;32338;50.430;6.806;2023-12-14T11:00:05;65871.09;;;4.17;100.00
46614;BME280;32338;50.430;6.806;2023-12-14T11:02:39;65877.59;;;4.21;100.00
46614;BME280;32338;50.430;6.806;2023-12-14T11:05:06;65875.94;;;4.19;100.00
46614;BME280;32338;50.430;6.806;2023-12-14T11:07:45;65867.16;;;4.14;100.00
46614;BME280;32338;50.430;6.806;2023-12-14T11:10:12;65868.63;;;4.13;100.00
46614;BME280;32338;50.430;6.806;2023-12-14T11:12:50;65866.75;;;4.09;100.00
46614;BME280;32338;50.430;6.806;2023-12-14T11:15:19;65854.06;;;3.99;100.00
46614;BME280;32338;50.430;6.806;2023-12-14T11:20:50;65844.34;;;3.88;100.00
46614;BME280;32338;50.430;6.806;2023-12-14T11:23:17;65840.84;;;3.89;100.00
46614;BME280;32338;50.430;6.806;2023-12-14T11:25:48;65854.44;;;3.97;100.00
46614;BME280;32338;50.430;6.806;2023-12-14T11:28:15;65847.56;;;3.96;100.00
46614;BME280;32338;50.430;6.806;2023-12-14T11:30:44;65860.03;;;4.02;100.00
46614;BME280;32338;50.430;6.806;2023-12-14T11:33:11;65851.69;;;4.02;100.00
46614;BME280;32338;50.430;6.806;2023-12-14T11:35:38;65855.00;;;3.98;100.00
46614;BME280;32338;50.430;6.806;2023-12-14T11:38:05;65847.72;;;3.91;100.00
46614;BME280;32338;50.430;6.806;2023-12-14T11:40:37;65842.66;;;3.86;100.00
46614;BME280;32338;50.430;6.806;2023-12-14T11:43:04;65841.94;;;3.90;100.00
46614;BME280;32338;50.430;6.806;2023-12-14T11:45:32;65844.91;;;3.88;100.00
46614;BME280;32338;50.430;6.806;2023-12-14T11:48:00;65844.19;;;3.93;100.00
46614;BME280;32338;50.430;6.806;2023-12-14T11:50:27;65842.31;;;3.88;100.00
46614;BME280;32338;50.430;6.806;2023-12-14T11:52:55;65844.00;;;3.90;100.00
46614;BME280;32338;50.430;6.806;2023-12-14T11:55:22;65846.59;;;3.90;100.00
46614;BME280;32338;50.430;6.806;2023-12-14T11:57:49;65848.63;;;3.89;100.00
46614;BME280;32338;50.430;6.806;2023-12-14T12:00:17;65839.72;;;3.88;100.00
46614;BME280;32338;50.430;6.806;2023-12-14T12:02:43;65844.00;;;3.90;100.00
46614;BME280;32338;50.430;6.806;2023-12-14T12:05:11;65843.44;;;3.89;100.00
46614;BME280;32338;50.430;6.806;2023-12-14T12:07:43;65842.13;;;3.86;100.00
46614;BME280;32338;50.430;6.806;2023-12-14T12:10:10;65839.88;;;3.84;100.00
46614;BME280;32338;50.430;6.806;2023-12-14T12:12:37;65843.44;;;3.89;100.00
46614;BME280;32338;50.430;6.806;2023-12-14T12:15:05;65854.06;;;3.99;100.00
46614;BME280;32338;50.430;6.806;2023-12-14T12:17:31;65858.00;;;4.03;100.00
46614;BME280;32338;50.430;6.806;2023-12-14T12:20:04;65871.44;;;4.15;100.00
46614;BME280;32338;50.430;6.806;2023-12-14T12:22:32;65875.16;;;4.16;100.00
46614;BME280;32338;50.430;6.806;2023-12-14T12:24:58;65866.75;;;4.09;100.00
46614;BME280;32338;50.430;6.806;2023-12-14T12:27:26;65848.13;;;3.96;100.00
46614;BME280;32338;50.430;6.806;2023-12-14T12:29:52;65836.34;;;3.85;100.00
46614;BME280;32338;50.430;6.806;2023-12-14T12:32:20;65824.03;;;3.74;100.00
46614;BME280;32338;50.430;6.806;2023-12-14T12:34:46;65807.59;;;3.56;100.00
46614;BME280;32338;50.430;6.806;2023-12-14T12:37:13;65814.09;;;3.60;100.00
46614;BME280;32338;50.430;6.806;2023-12-14T12:39:41;65806.47;;;3.55;100.00
46614;BME280;32338;50.430;6.806;2023-12-14T12:42:07;65804.59;;;3.51;100.00
46614;BME280;32338;50.430;6.806;2023-12-14T12:44:34;65799.41;;;3.51;100.00
46614;BME280;32338;50.430;6.806;2023-12-14T12:47:01;65803.66;;;3.53;100.00
46614;BME280;32338;50.430;6.806;2023-12-14T12:49:27;65798.06;;;3.48;100.00
46614;BME280;32338;50.430;6.806;2023-12-14T12:51:54;65795.69;;;3.50;100.00
46614;BME280;32338;50.430;6.806;2023-12-14T12:54:21;65793.81;;;3.46;100.00
46614;BME280;32338;50.430;6.806;2023-12-14T12:56:49;65796.41;;;3.46;100.00
46614;BME280;32338;50.430;6.806;2023-12-14T12:59:16;65791.00;;;3.44;100.00
46614;BME280;32338;50.430;6.806;2023-12-14T13:01:42;65789.34;;;3.42;100.00